createdAt,value
2018-03-14T00:01:02.438Z,59.24
2018-03-14T00:03:30.922Z,59.16
2018-03-14T00:05:59.395Z,59.22
2018-03-14T00:08:27.917Z,59.11
2018-03-14T00:10:56.397Z,59.08
2018-03-14T00:13:24.926Z,59.74
2018-03-14T00:15:53.434Z,59.42
2018-03-14T00:18:21.915Z,59.36
2018-03-14T00:20:50.430Z,59.20
2018-03-14T00:23:18.922Z,59.41
2018-03-14T00:25:47.469Z,59.30
2018-03-14T00:28:15.958Z,59.32
2018-03-14T00:30:44.435Z,59.36
2018-03-14T00:33:12.961Z,59.21
2018-03-14T00:35:41.422Z,59.30
2018-03-14T00:38:09.897Z,58.94
2018-03-14T00:40:38.449Z,58.96
2018-03-14T00:43:06.936Z,58.93
2018-03-14T00:45:35.406Z,58.45
2018-03-14T00:48:03.918Z,58.58
2018-03-14T00:50:32.412Z,58.42
2018-03-14T00:53:00.954Z,58.54
2018-03-14T00:55:29.497Z,58.49
2018-03-14T00:57:58.010Z,58.61
2018-03-14T01:00:26.502Z,58.12
2018-03-14T01:02:55.013Z,58.46
2018-03-14T01:05:23.518Z,58.99
2018-03-14T01:07:52.025Z,58.77
2018-03-14T01:10:20.492Z,58.31
2018-03-14T01:12:49.025Z,58.62
2018-03-14T01:15:17.535Z,58.55
2018-03-14T01:17:46.050Z,58.40
2018-03-14T01:20:14.574Z,58.40
2018-03-14T01:22:43.050Z,58.56
2018-03-14T01:25:11.570Z,58.93
2018-03-14T01:27:40.054Z,58.78
2018-03-14T01:30:08.525Z,59.05
2018-03-14T01:32:37.086Z,58.99
2018-03-14T01:35:05.592Z,59.15
2018-03-14T01:37:34.110Z,59.00
2018-03-14T01:40:02.634Z,58.62
2018-03-14T01:42:31.134Z,59.35
2018-03-14T01:44:59.649Z,58.81
2018-03-14T01:47:28.130Z,58.86
2018-03-14T01:49:56.650Z,59.37
2018-03-14T01:52:25.157Z,59.38
2018-03-14T01:54:53.654Z,59.35
2018-03-14T01:57:22.166Z,59.30
2018-03-14T01:59:50.649Z,59.08
2018-03-14T02:02:19.143Z,59.11
2018-03-14T02:04:47.661Z,58.99
2018-03-14T02:07:16.162Z,59.04
2018-03-14T02:09:44.660Z,59.28
2018-03-14T02:12:13.177Z,59.47
2018-03-14T02:14:41.676Z,59.29
2018-03-14T02:17:10.197Z,59.52
2018-03-14T02:19:38.674Z,59.18
2018-03-14T02:22:07.174Z,59.33
2018-03-14T02:24:35.702Z,59.68
2018-03-14T02:27:04.202Z,59.41
2018-03-14T02:29:32.677Z,59.54
2018-03-14T02:32:01.203Z,59.70
2018-03-14T02:34:29.674Z,59.58
2018-03-14T02:37:04.906Z,59.19
2018-03-14T02:39:33.404Z,59.12
2018-03-14T02:42:01.930Z,58.87
2018-03-14T02:44:30.393Z,58.90
2018-03-14T02:46:58.938Z,58.57
2018-03-14T02:49:27.433Z,58.65
2018-03-14T02:51:55.922Z,58.40
2018-03-14T02:54:24.426Z,58.37
2018-03-14T02:56:52.881Z,57.91
2018-03-14T02:59:21.370Z,58.11
2018-03-14T03:01:49.817Z,57.87
2018-03-14T03:04:18.270Z,57.67
2018-03-14T03:06:50.679Z,57.45
2018-03-14T03:09:19.178Z,57.58
2018-03-14T03:11:47.686Z,57.53
2018-03-14T03:14:16.140Z,57.74
2018-03-14T03:16:44.634Z,57.68
2018-03-14T03:19:13.093Z,57.88
2018-03-14T03:21:41.589Z,57.83
2018-03-14T03:24:10.062Z,57.74
2018-03-14T03:26:38.562Z,57.83
2018-03-14T03:29:07.005Z,57.65
2018-03-14T03:31:35.494Z,57.69
2018-03-14T03:34:03.949Z,57.43
2018-03-14T03:36:32.437Z,57.34
2018-03-14T03:39:00.952Z,57.49
2018-03-14T03:41:29.437Z,57.59
2018-03-14T03:43:57.895Z,57.73
2018-03-14T03:46:26.378Z,57.31
2018-03-14T03:48:54.835Z,57.32
2018-03-14T03:51:23.352Z,57.27
2018-03-14T03:53:51.822Z,57.30
2018-03-14T03:56:20.329Z,57.08
2018-03-14T03:58:48.822Z,56.90
2018-03-14T04:01:17.269Z,56.83
2018-03-14T04:03:45.719Z,56.40
2018-03-14T04:06:14.218Z,56.35
2018-03-14T04:08:42.702Z,56.25
2018-03-14T04:11:11.158Z,56.42
2018-03-14T04:13:39.651Z,56.77
2018-03-14T04:16:08.142Z,56.59
2018-03-14T04:18:36.680Z,56.31
2018-03-14T04:21:05.171Z,56.51
2018-03-14T04:23:33.622Z,56.47
2018-03-14T04:26:02.130Z,56.63
2018-03-14T04:28:30.618Z,56.37
2018-03-14T04:30:59.134Z,56.24
2018-03-14T04:33:27.589Z,56.14
2018-03-14T04:35:56.077Z,56.23
2018-03-14T04:38:24.566Z,56.05
2018-03-14T04:40:53.057Z,56.10
2018-03-14T04:43:21.534Z,56.79
2018-03-14T04:45:50.018Z,56.38
2018-03-14T04:48:18.506Z,56.09
2018-03-14T04:50:46.966Z,56.64
2018-03-14T04:53:15.449Z,56.35
2018-03-14T04:55:43.935Z,56.68
2018-03-14T04:58:12.418Z,56.27
2018-03-14T05:00:40.865Z,56.16
2018-03-14T05:03:09.354Z,56.19
2018-03-14T05:05:37.816Z,56.07
2018-03-14T05:08:06.314Z,56.08
2018-03-14T05:10:34.762Z,56.38
2018-03-14T05:13:03.258Z,56.31
2018-03-14T05:15:31.747Z,56.14
2018-03-14T05:18:00.218Z,55.88
2018-03-14T05:20:28.702Z,55.50
2018-03-14T05:22:57.146Z,55.53
2018-03-14T05:25:25.647Z,55.44
2018-03-14T05:27:54.099Z,55.11
2018-03-14T05:30:22.586Z,55.04
2018-03-14T05:32:51.038Z,54.70
2018-03-14T05:35:19.545Z,54.39
2018-03-14T05:37:47.994Z,53.83
2018-03-14T05:40:16.489Z,53.59
2018-03-14T05:42:44.969Z,53.71
2018-03-14T05:45:13.475Z,53.64
2018-03-14T05:47:41.981Z,52.61
2018-03-14T05:50:10.471Z,52.52
2018-03-14T05:52:39.014Z,52.36
2018-03-14T05:55:07.461Z,52.06
2018-03-14T05:57:35.926Z,52.12
2018-03-14T06:00:04.490Z,50.98
2018-03-14T06:02:32.990Z,51.83
2018-03-14T06:05:01.544Z,50.49
2018-03-14T06:07:30.050Z,50.70
2018-03-14T06:09:58.542Z,50.75
2018-03-14T06:12:27.007Z,50.64
2018-03-14T06:14:55.498Z,50.85
2018-03-14T06:17:23.967Z,50.72
2018-03-14T06:19:52.462Z,50.10
2018-03-14T06:22:20.965Z,49.68
2018-03-14T06:24:49.425Z,49.80
2018-03-14T06:27:17.937Z,49.43
2018-03-14T06:29:46.388Z,49.25
2018-03-14T06:32:14.843Z,49.35
2018-03-14T06:34:43.350Z,48.89
2018-03-14T06:37:11.855Z,48.04
2018-03-14T06:39:40.355Z,48.26
2018-03-14T06:42:08.877Z,47.74
2018-03-14T06:44:37.499Z,47.91
2018-03-14T06:47:05.988Z,47.68
2018-03-14T06:49:34.492Z,46.78
2018-03-14T06:52:02.977Z,47.70
2018-03-14T06:54:31.470Z,47.33
2018-03-14T06:56:59.941Z,46.96
2018-03-14T06:59:40.001Z,46.32
2018-03-14T07:02:20.066Z,46.26
2018-03-14T07:05:00.863Z,46.96
2018-03-14T07:07:29.326Z,45.99
2018-03-14T07:09:57.847Z,46.50
2018-03-14T07:12:26.358Z,45.62
2018-03-14T07:14:54.838Z,45.44
2018-03-14T07:17:23.412Z,45.42
2018-03-14T07:19:51.877Z,45.19
2018-03-14T07:22:20.417Z,45.21
2018-03-14T07:24:48.878Z,44.15
2018-03-14T07:27:17.430Z,44.43
2018-03-14T07:29:45.901Z,44.36
2018-03-14T07:32:14.415Z,43.53
2018-03-14T07:34:42.901Z,43.45
2018-03-14T07:37:11.394Z,43.74
2018-03-14T07:39:39.894Z,43.43
2018-03-14T07:42:08.394Z,44.34
2018-03-14T07:44:36.896Z,43.89
2018-03-14T07:47:05.378Z,43.63
2018-03-14T07:49:33.887Z,44.21
2018-03-14T07:52:02.382Z,44.16
2018-03-14T07:54:30.791Z,44.23
2018-03-14T07:56:59.225Z,44.17
2018-03-14T07:59:27.627Z,44.46
2018-03-14T08:01:56.064Z,44.38
2018-03-14T08:04:24.492Z,43.97
2018-03-14T08:06:52.884Z,43.71
2018-03-14T08:09:21.312Z,43.63
2018-03-14T08:11:49.763Z,43.47
2018-03-14T08:14:18.192Z,43.35
2018-03-14T08:16:46.625Z,43.58
2018-03-14T08:19:15.054Z,43.41
2018-03-14T08:21:43.582Z,42.80
2018-03-14T08:24:11.977Z,42.65
2018-03-14T08:26:40.413Z,42.80
2018-03-14T08:29:08.836Z,43.00
2018-03-14T08:31:37.245Z,42.70
2018-03-14T08:34:06.022Z,43.06
2018-03-14T08:36:34.469Z,42.87
2018-03-14T08:39:03.029Z,42.81
2018-03-14T08:41:31.575Z,43.27
2018-03-14T08:44:01.013Z,43.21
2018-03-14T08:46:29.506Z,42.87
2018-03-14T08:48:58.026Z,42.93
2018-03-14T08:51:26.486Z,42.47
2018-03-14T08:53:54.974Z,42.32
2018-03-14T08:56:23.486Z,42.74
2018-03-14T08:58:51.985Z,42.84
2018-03-14T09:01:20.447Z,43.07
2018-03-14T09:03:48.983Z,42.40
2018-03-14T09:06:17.449Z,42.08
2018-03-14T09:08:46.075Z,41.45
2018-03-14T09:11:14.698Z,41.09
2018-03-14T09:13:43.282Z,40.98
2018-03-14T09:16:11.814Z,40.43
2018-03-14T09:18:41.299Z,39.70
2018-03-14T09:21:11.151Z,39.06
2018-03-14T09:23:39.686Z,39.34
2018-03-14T09:26:08.238Z,39.41
2018-03-14T09:28:36.780Z,40.35
2018-03-14T09:31:05.443Z,40.20
2018-03-14T09:33:33.911Z,39.88
2018-03-14T09:36:02.403Z,39.83
2018-03-14T09:38:30.871Z,39.92
2018-03-14T09:40:59.377Z,38.84
2018-03-14T09:43:27.842Z,38.13
2018-03-14T09:45:56.371Z,38.64
2018-03-14T09:48:24.829Z,37.14
2018-03-14T09:50:53.303Z,38.00
2018-03-14T09:53:21.815Z,38.11
2018-03-14T09:55:50.311Z,38.61
2018-03-14T09:58:18.766Z,38.61
2018-03-14T10:00:47.311Z,38.47
2018-03-14T10:03:15.778Z,37.95
2018-03-14T10:05:44.293Z,38.07
2018-03-14T10:08:12.763Z,37.80
2018-03-14T10:10:41.258Z,38.18
2018-03-14T10:13:09.710Z,38.54
2018-03-14T10:15:38.210Z,38.68
2018-03-14T10:18:06.770Z,38.67
2018-03-14T10:20:35.226Z,38.68
2018-03-14T10:23:03.744Z,38.60
2018-03-14T10:25:32.316Z,38.72
2018-03-14T10:28:00.782Z,38.12
2018-03-14T10:30:29.244Z,38.51
2018-03-14T10:32:57.774Z,37.80
2018-03-14T10:35:26.279Z,37.56
2018-03-14T10:37:54.769Z,37.03
2018-03-14T10:40:23.240Z,37.87
2018-03-14T10:42:51.756Z,37.12
2018-03-14T10:45:20.214Z,37.29
2018-03-14T10:47:48.702Z,37.59
2018-03-14T10:50:17.172Z,37.48
2018-03-14T10:52:45.682Z,37.51
2018-03-14T10:55:14.154Z,37.52
2018-03-14T10:57:42.625Z,36.64
2018-03-14T11:00:16.762Z,36.59
2018-03-14T11:02:50.693Z,36.25
2018-03-14T11:05:19.216Z,36.63
2018-03-14T11:07:47.739Z,35.96
2018-03-14T11:10:16.262Z,35.48
2018-03-14T11:12:44.757Z,36.31
2018-03-14T11:15:13.223Z,35.95
2018-03-14T11:17:41.718Z,36.65
2018-03-14T11:20:10.214Z,36.58
2018-03-14T11:22:38.667Z,36.75
2018-03-14T11:25:07.126Z,37.58
2018-03-14T11:27:35.689Z,37.55
2018-03-14T11:30:04.302Z,37.62
2018-03-14T11:32:32.802Z,37.30
2018-03-14T11:35:01.262Z,37.21
2018-03-14T11:37:29.793Z,37.87
2018-03-14T11:59:05.495Z,38.24
2018-03-14T12:01:34.014Z,38.35
2018-03-14T12:04:02.543Z,38.41
2018-03-14T12:06:31.131Z,38.01
2018-03-14T12:08:59.642Z,38.07
2018-03-14T12:11:28.097Z,38.38
2018-03-14T12:13:56.571Z,38.24
2018-03-14T12:16:25.095Z,38.65
2018-03-14T12:18:53.752Z,38.29
2018-03-14T12:21:22.251Z,37.94
2018-03-14T12:23:50.718Z,38.11
2018-03-14T12:26:19.348Z,38.16
2018-03-14T12:28:47.813Z,37.92
2018-03-14T12:31:16.314Z,38.10
2018-03-14T12:33:44.862Z,38.57
2018-03-14T12:36:13.366Z,38.58
2018-03-14T12:38:41.822Z,38.42
2018-03-14T12:41:10.394Z,38.53
2018-03-14T12:43:38.853Z,38.59
2018-03-14T12:46:07.321Z,37.61
2018-03-14T12:48:35.857Z,37.29
2018-03-14T12:51:04.383Z,37.26
2018-03-14T12:53:32.881Z,37.04
2018-03-14T12:56:01.370Z,37.34
2018-03-14T12:58:29.917Z,37.96
2018-03-14T13:00:58.438Z,38.52
2018-03-14T13:03:26.973Z,38.83
2018-03-14T13:05:55.486Z,39.43
2018-03-14T13:08:23.942Z,39.61
2018-03-14T13:10:52.454Z,41.21
2018-03-14T13:13:20.909Z,41.60
2018-03-14T13:15:49.401Z,41.31
2018-03-14T13:18:17.874Z,41.26
2018-03-14T13:20:46.362Z,41.71
2018-03-14T13:23:14.825Z,41.42
2018-03-14T13:25:43.345Z,41.22
2018-03-14T13:28:11.869Z,40.91
2018-03-14T13:30:40.347Z,40.88
2018-03-14T13:33:08.841Z,40.67
2018-03-14T13:35:37.306Z,40.42
2018-03-14T13:38:06.619Z,40.31
2018-03-14T13:40:35.129Z,40.03
2018-03-14T13:43:03.626Z,40.24
2018-03-14T13:45:32.142Z,40.10
2018-03-14T13:48:00.646Z,40.08
2018-03-14T13:50:29.158Z,39.71
2018-03-14T13:52:57.694Z,39.92
2018-03-14T13:55:26.201Z,39.71
2018-03-14T13:57:54.746Z,39.51
2018-03-14T14:00:23.249Z,38.71
2018-03-14T14:02:52.657Z,39.24
2018-03-14T14:05:21.164Z,38.54
2018-03-14T14:07:49.699Z,38.85
2018-03-14T14:10:18.154Z,38.64
2018-03-14T14:12:46.668Z,38.58
2018-03-14T14:15:15.172Z,39.19
2018-03-14T14:17:43.670Z,38.83
2018-03-14T14:20:12.203Z,38.31
2018-03-14T14:22:40.671Z,37.78
2018-03-14T14:25:09.177Z,38.16
2018-03-14T14:27:37.665Z,37.68
2018-03-14T14:30:06.148Z,37.26
2018-03-14T14:32:34.606Z,37.08
2018-03-14T14:35:03.157Z,36.83
2018-03-14T14:37:31.664Z,37.03
2018-03-14T14:40:00.178Z,37.53
2018-03-14T14:42:28.979Z,37.21
2018-03-14T14:44:57.553Z,37.40
2018-03-14T14:47:26.022Z,37.14
2018-03-14T14:49:54.540Z,37.39
2018-03-14T14:52:23.034Z,37.07
2018-03-14T14:54:51.510Z,37.03
2018-03-14T14:57:20.014Z,37.24
2018-03-14T14:59:48.499Z,37.36
2018-03-14T15:02:16.982Z,37.54
2018-03-14T15:04:45.437Z,37.58
2018-03-14T15:07:13.965Z,37.65
2018-03-14T15:09:42.474Z,37.44
2018-03-14T15:12:11.010Z,37.59
2018-03-14T15:14:39.466Z,37.30
2018-03-14T15:17:07.926Z,37.23
2018-03-14T15:19:36.430Z,35.60
2018-03-14T15:22:04.893Z,36.79
2018-03-14T15:24:33.379Z,35.88
2018-03-14T15:27:01.871Z,35.59
2018-03-14T15:29:30.330Z,35.83
2018-03-14T15:31:58.838Z,36.04
2018-03-14T15:34:27.396Z,36.39
2018-03-14T15:36:55.957Z,36.44
2018-03-14T15:39:24.422Z,36.97
2018-03-14T15:41:52.927Z,37.07
2018-03-14T15:44:21.432Z,37.28
2018-03-14T15:46:49.894Z,37.38
2018-03-14T15:49:18.351Z,37.36
2018-03-14T15:51:46.844Z,37.47
2018-03-14T15:54:15.299Z,37.43
2018-03-14T15:56:43.814Z,38.03
2018-03-14T15:59:12.279Z,37.99
2018-03-14T16:01:40.729Z,37.83
2018-03-14T16:04:09.214Z,38.02
2018-03-14T16:06:37.671Z,38.31
2018-03-14T16:09:06.230Z,38.85
2018-03-14T16:11:34.692Z,38.77
2018-03-14T16:14:03.213Z,38.64
2018-03-14T16:16:31.678Z,38.87
2018-03-14T16:19:00.133Z,38.97
2018-03-14T16:21:28.643Z,38.98
2018-03-14T16:23:57.129Z,38.90
2018-03-14T16:26:25.571Z,38.93
2018-03-14T16:28:54.067Z,38.79
2018-03-14T16:31:22.572Z,38.94
2018-03-14T16:33:51.018Z,38.97
2018-03-14T16:36:19.481Z,39.10
2018-03-14T16:38:47.972Z,39.09
2018-03-14T16:41:16.434Z,39.08
2018-03-14T16:43:44.926Z,39.34
2018-03-14T16:46:13.378Z,39.53
2018-03-14T16:48:41.857Z,39.59
2018-03-14T16:51:10.364Z,39.90
2018-03-14T16:53:38.813Z,39.70
2018-03-14T16:56:07.263Z,40.08
2018-03-14T16:58:35.746Z,40.16
2018-03-14T17:01:04.238Z,39.95
2018-03-14T17:03:32.714Z,40.02
2018-03-14T17:06:01.196Z,40.10
2018-03-14T17:08:29.703Z,40.26
2018-03-14T17:10:58.189Z,40.44
2018-03-14T17:13:26.708Z,40.73
2018-03-14T17:15:55.164Z,40.87
2018-03-14T17:18:23.659Z,41.11
2018-03-14T17:20:52.128Z,41.42
2018-03-14T17:23:20.610Z,41.78
2018-03-14T17:25:49.105Z,42.25
2018-03-14T17:28:17.590Z,42.66
2018-03-14T17:30:46.077Z,43.06
2018-03-14T17:33:14.571Z,43.42
2018-03-14T17:35:43.027Z,43.47
2018-03-14T17:38:11.558Z,43.41
2018-03-14T17:40:40.034Z,43.34
2018-03-14T17:43:08.550Z,43.76
2018-03-14T17:45:37.034Z,44.05
2018-03-14T17:48:05.510Z,43.81
2018-03-14T17:50:34.009Z,43.71
2018-03-14T17:53:02.504Z,43.46
2018-03-14T17:55:31.001Z,43.66
2018-03-14T17:57:59.468Z,43.79
2018-03-14T18:00:27.980Z,43.88
2018-03-14T18:02:56.480Z,44.45
2018-03-14T18:05:24.970Z,43.77
2018-03-14T18:07:53.482Z,43.92
2018-03-14T18:10:21.930Z,44.28
2018-03-14T18:12:50.423Z,44.35
2018-03-14T18:15:18.932Z,44.57
2018-03-14T18:17:47.403Z,44.32
2018-03-14T18:20:15.854Z,44.08
2018-03-14T18:22:44.370Z,44.40
2018-03-14T18:25:12.826Z,43.99
2018-03-14T18:27:41.318Z,44.12
2018-03-14T18:30:09.932Z,43.91
2018-03-14T18:32:38.432Z,43.77
2018-03-14T18:35:06.922Z,43.82
2018-03-14T18:37:35.414Z,43.64
2018-03-14T18:40:03.906Z,43.54
2018-03-14T18:42:32.403Z,43.53
2018-03-14T18:45:00.892Z,43.74
2018-03-14T18:47:29.358Z,43.77
2018-03-14T18:49:57.849Z,43.90
2018-03-14T18:52:26.298Z,43.81
2018-03-14T18:54:54.781Z,43.69
2018-03-14T18:57:23.280Z,43.79
2018-03-14T18:59:51.802Z,43.91
2018-03-14T19:02:20.258Z,44.69
2018-03-14T19:04:48.761Z,44.49
2018-03-14T19:07:17.225Z,44.14
2018-03-14T19:09:45.772Z,44.37
2018-03-14T19:12:14.237Z,44.48
2018-03-14T19:14:42.690Z,44.43
2018-03-14T19:17:11.192Z,44.84
2018-03-14T19:19:39.745Z,44.83
2018-03-14T19:22:08.195Z,44.98
2018-03-14T19:24:36.660Z,45.02
2018-03-14T19:27:05.150Z,45.11
2018-03-14T19:29:33.607Z,45.17
2018-03-14T19:32:02.106Z,45.52
2018-03-14T19:34:30.606Z,46.06
2018-03-14T19:36:59.095Z,46.09
2018-03-14T19:39:27.541Z,46.10
2018-03-14T19:41:56.077Z,46.26
2018-03-14T19:44:24.586Z,46.39
2018-03-14T19:46:53.066Z,46.52
2018-03-14T19:49:21.518Z,46.13
2018-03-14T19:51:50.002Z,45.97
2018-03-14T19:54:18.445Z,46.10
2018-03-14T19:56:46.968Z,46.03
2018-03-14T19:59:15.432Z,45.71
2018-03-14T20:01:43.960Z,45.46
2018-03-14T20:04:12.458Z,45.31
2018-03-14T20:06:40.928Z,45.25
2018-03-14T20:09:09.495Z,45.12
2018-03-14T20:11:37.930Z,45.18
2018-03-14T20:14:06.436Z,45.52
2018-03-14T20:16:34.889Z,45.18
2018-03-14T20:19:03.378Z,45.14
2018-03-14T20:21:31.878Z,45.63
2018-03-14T20:24:00.326Z,45.44
2018-03-14T20:26:28.821Z,45.53
2018-03-14T20:28:57.290Z,45.91
2018-03-14T20:31:25.759Z,45.91
2018-03-14T20:33:54.215Z,45.87
2018-03-14T20:36:22.703Z,45.69
2018-03-14T20:38:51.193Z,45.40
2018-03-14T20:41:19.700Z,45.67
2018-03-14T20:43:48.190Z,45.65
2018-03-14T20:46:16.647Z,45.85
2018-03-14T20:48:45.137Z,45.77
2018-03-14T20:51:13.586Z,45.97
2018-03-14T20:53:42.048Z,46.17
2018-03-14T20:56:10.558Z,46.39
2018-03-14T20:58:39.014Z,46.60
2018-03-14T21:01:07.510Z,46.31
2018-03-14T21:03:36.002Z,46.71
2018-03-14T21:06:04.517Z,46.77
2018-03-14T21:08:32.999Z,46.71
2018-03-14T21:11:01.457Z,47.44
2018-03-14T21:13:29.958Z,46.96
2018-03-14T21:15:58.469Z,46.82
2018-03-14T21:18:26.919Z,46.98
2018-03-14T21:20:55.370Z,47.39
2018-03-14T21:23:23.918Z,47.30
2018-03-14T21:25:52.416Z,47.30
2018-03-14T21:28:20.908Z,47.30
2018-03-14T21:30:49.358Z,47.34
2018-03-14T21:33:17.852Z,47.38
2018-03-14T21:35:46.298Z,47.56
2018-03-14T21:38:15.180Z,47.62
2018-03-14T21:40:43.682Z,47.63
2018-03-14T21:43:12.208Z,47.97
2018-03-14T21:45:40.693Z,47.64
2018-03-14T21:48:09.186Z,47.61
2018-03-14T21:50:37.635Z,47.35
2018-03-14T21:53:06.154Z,47.13
2018-03-14T21:55:40.655Z,47.43
2018-03-14T21:58:09.028Z,47.44
2018-03-14T22:00:37.511Z,47.37
2018-03-14T22:03:05.966Z,47.39
2018-03-14T22:05:34.426Z,47.08
2018-03-14T22:08:02.921Z,47.28
2018-03-14T22:10:31.414Z,46.77
2018-03-14T22:12:59.867Z,47.39
2018-03-14T22:15:28.402Z,46.82
2018-03-14T22:17:56.911Z,46.72
2018-03-14T22:20:25.410Z,46.48
2018-03-14T22:22:53.901Z,46.63
2018-03-14T22:25:22.383Z,46.41
2018-03-14T22:27:50.928Z,46.31
2018-03-14T22:30:19.400Z,46.23
2018-03-14T22:32:47.949Z,45.93
2018-03-14T22:35:16.425Z,45.91
2018-03-14T22:37:44.909Z,46.04
2018-03-14T22:40:13.362Z,45.86
2018-03-14T22:42:41.871Z,45.95
2018-03-14T22:45:10.374Z,45.83
2018-03-14T22:47:38.822Z,46.20
2018-03-14T22:50:07.334Z,46.00
2018-03-14T22:52:35.791Z,46.25
2018-03-14T22:55:04.339Z,45.92
2018-03-14T22:57:32.826Z,45.99
2018-03-14T23:00:01.274Z,45.85
2018-03-14T23:02:29.810Z,46.18
2018-03-14T23:04:58.258Z,46.38
2018-03-14T23:07:26.796Z,46.50
2018-03-14T23:09:55.250Z,46.15
2018-03-14T23:12:23.733Z,46.07
2018-03-14T23:14:52.184Z,46.19
2018-03-14T23:17:20.670Z,46.43
2018-03-14T23:19:49.121Z,46.70
2018-03-14T23:22:17.610Z,46.46
2018-03-14T23:24:46.067Z,46.98
2018-03-14T23:27:14.523Z,47.29
2018-03-14T23:29:43.018Z,47.16
2018-03-14T23:32:11.466Z,47.67
2018-03-14T23:34:39.955Z,48.12
2018-03-14T23:37:08.438Z,48.19
2018-03-14T23:39:36.926Z,47.98
2018-03-14T23:42:05.419Z,48.66
2018-03-14T23:44:33.869Z,48.73
2018-03-14T23:47:02.353Z,48.26
2018-03-14T23:49:30.878Z,49.27
2018-03-14T23:51:59.322Z,49.24
2018-03-14T23:54:27.802Z,49.35
2018-03-14T23:56:56.295Z,49.63
2018-03-14T23:59:24.813Z,49.62
